Terminal Aerodrome Forecast
Issued by NWS

Home | Current Version | Previous Version | Text Only | Print | Product List | Glossary On
Versions: 1 2 3 4 5 6 7 8 9 10 11 12
000
FTUS45 KTWC 141738
TAFOLS
TAF
KOLS 141738Z 1418/1518 25004KT P6SM FEW150
     FM142100 27007KT P6SM SCT070
     FM150700 VRB04KT P6SM SKC
     FM151500 12016G25KT P6SM SKC=

USA.gov is the U.S. government's official web portal to all federal, state and local government web resources and services.